sensor_id;sensor_type;location;lat;lon;timestamp;temperature;humidity
47114;DHT22;32867;51.556;6.832;2023-05-02T00:01:34;11.40;99.90
47114;DHT22;32867;51.556;6.832;2023-05-02T00:06:35;11.20;99.90
47114;DHT22;32867;51.556;6.832;2023-05-02T00:11:36;11.20;99.90
47114;DHT22;32867;51.556;6.832;2023-05-02T00:16:37;11.10;99.90
47114;DHT22;32867;51.556;6.832;2023-05-02T00:21:38;11.40;99.90
47114;DHT22;32867;51.556;6.832;2023-05-02T00:26:38;11.20;99.90
47114;DHT22;32867;51.556;6.832;2023-05-02T00:31:42;11.00;99.90
47114;DHT22;32867;51.556;6.832;2023-05-02T00:36:43;10.80;99.90
47114;DHT22;32867;51.556;6.832;2023-05-02T00:41:43;10.80;99.90
47114;DHT22;32867;51.556;6.832;2023-05-02T00:46:44;10.80;99.90
47114;DHT22;32867;51.556;6.832;2023-05-02T00:51:45;10.70;99.90
47114;DHT22;32867;51.556;6.832;2023-05-02T00:56:46;10.60;99.90
47114;DHT22;32867;51.556;6.832;2023-05-02T01:07:07;10.50;99.90
47114;DHT22;32867;51.556;6.832;2023-05-02T01:17:22;10.60;99.90
47114;DHT22;32867;51.556;6.832;2023-05-02T01:22:25;10.60;99.90
47114;DHT22;32867;51.556;6.832;2023-05-02T01:32:48;10.70;99.90
47114;DHT22;32867;51.556;6.832;2023-05-02T01:37:52;10.70;99.90
47114;DHT22;32867;51.556;6.832;2023-05-02T01:42:56;10.70;99.90
47114;DHT22;32867;51.556;6.832;2023-05-02T01:47:57;10.60;99.90
47114;DHT22;32867;51.556;6.832;2023-05-02T01:53:01;10.40;99.90
47114;DHT22;32867;51.556;6.832;2023-05-02T01:58:04;10.50;99.90
47114;DHT22;32867;51.556;6.832;2023-05-02T02:03:06;10.70;99.90
47114;DHT22;32867;51.556;6.832;2023-05-02T02:08:09;10.70;99.90
47114;DHT22;32867;51.556;6.832;2023-05-02T02:13:18;10.70;99.90
47114;DHT22;32867;51.556;6.832;2023-05-02T02:18:22;10.60;99.90
47114;DHT22;32867;51.556;6.832;2023-05-02T02:23:27;10.50;99.90
47114;DHT22;32867;51.556;6.832;2023-05-02T02:28:29;10.70;99.90
47114;DHT22;32867;51.556;6.832;2023-05-02T02:33:31;10.60;99.90
47114;DHT22;32867;51.556;6.832;2023-05-02T02:38:45;10.80;99.90
47114;DHT22;32867;51.556;6.832;2023-05-02T02:43:55;10.80;99.90
47114;DHT22;32867;51.556;6.832;2023-05-02T02:59:28;11.00;99.90
47114;DHT22;32867;51.556;6.832;2023-05-02T03:04:32;11.00;99.90
47114;DHT22;32867;51.556;6.832;2023-05-02T03:09:44;11.10;99.90
47114;DHT22;32867;51.556;6.832;2023-05-02T03:14:49;11.00;99.90
47114;DHT22;32867;51.556;6.832;2023-05-02T03:19:51;10.90;99.90
47114;DHT22;32867;51.556;6.832;2023-05-02T03:24:52;10.80;99.90
47114;DHT22;32867;51.556;6.832;2023-05-02T03:29:53;10.90;99.90
47114;DHT22;32867;51.556;6.832;2023-05-02T03:34:54;10.90;99.90
47114;DHT22;32867;51.556;6.832;2023-05-02T03:40:02;11.00;99.90
47114;DHT22;32867;51.556;6.832;2023-05-02T03:45:04;10.90;99.90
47114;DHT22;32867;51.556;6.832;2023-05-02T03:50:05;10.90;99.90
47114;DHT22;32867;51.556;6.832;2023-05-02T03:55:08;11.00;99.90
47114;DHT22;32867;51.556;6.832;2023-05-02T04:00:09;10.90;99.90
47114;DHT22;32867;51.556;6.832;2023-05-02T04:05:19;11.00;99.90
47114;DHT22;32867;51.556;6.832;2023-05-02T04:10:22;10.90;99.90
47114;DHT22;32867;51.556;6.832;2023-05-02T04:15:30;10.90;99.90
47114;DHT22;32867;51.556;6.832;2023-05-02T04:20:31;10.70;99.90
47114;DHT22;32867;51.556;6.832;2023-05-02T04:25:32;10.40;99.90
47114;DHT22;32867;51.556;6.832;2023-05-02T04:30:36;10.50;99.90
47114;DHT22;32867;51.556;6.832;2023-05-02T04:35:42;10.40;99.90
47114;DHT22;32867;51.556;6.832;2023-05-02T04:40:46;10.30;99.90
47114;DHT22;32867;51.556;6.832;2023-05-02T04:45:46;10.50;99.90
47114;DHT22;32867;51.556;6.832;2023-05-02T04:50:55;10.50;99.90
47114;DHT22;32867;51.556;6.832;2023-05-02T04:55:56;10.90;99.90
47114;DHT22;32867;51.556;6.832;2023-05-02T05:00:57;11.20;99.90
47114;DHT22;32867;51.556;6.832;2023-05-02T05:05:58;11.10;99.90
47114;DHT22;32867;51.556;6.832;2023-05-02T05:11:00;10.80;99.90
47114;DHT22;32867;51.556;6.832;2023-05-02T05:16:02;10.90;99.90
47114;DHT22;32867;51.556;6.832;2023-05-02T05:21:06;11.00;99.90
47114;DHT22;32867;51.556;6.832;2023-05-02T05:26:11;11.30;99.90
47114;DHT22;32867;51.556;6.832;2023-05-02T05:31:15;10.80;99.90
47114;DHT22;32867;51.556;6.832;2023-05-02T05:36:19;10.90;99.90
47114;DHT22;32867;51.556;6.832;2023-05-02T05:41:21;11.20;99.90
47114;DHT22;32867;51.556;6.832;2023-05-02T05:46:28;11.20;99.90
47114;DHT22;32867;51.556;6.832;2023-05-02T05:51:29;11.50;99.90
47114;DHT22;32867;51.556;6.832;2023-05-02T05:56:33;11.50;99.90
47114;DHT22;32867;51.556;6.832;2023-05-02T06:01:41;11.30;99.90
47114;DHT22;32867;51.556;6.832;2023-05-02T06:06:42;11.40;99.90
47114;DHT22;32867;51.556;6.832;2023-05-02T06:11:43;11.80;99.90
47114;DHT22;32867;51.556;6.832;2023-05-02T06:16:45;11.50;99.90
47114;DHT22;32867;51.556;6.832;2023-05-02T06:21:46;11.40;99.90
47114;DHT22;32867;51.556;6.832;2023-05-02T06:26:47;11.80;99.90
47114;DHT22;32867;51.556;6.832;2023-05-02T06:31:48;11.90;99.90
47114;DHT22;32867;51.556;6.832;2023-05-02T06:36:54;12.10;99.90
47114;DHT22;32867;51.556;6.832;2023-05-02T06:41:56;11.50;99.90
47114;DHT22;32867;51.556;6.832;2023-05-02T06:46:57;10.70;99.90
47114;DHT22;32867;51.556;6.832;2023-05-02T06:51:58;10.70;99.90
47114;DHT22;32867;51.556;6.832;2023-05-02T06:56:59;11.10;99.90
47114;DHT22;32867;51.556;6.832;2023-05-02T07:02:00;11.20;99.90
47114;DHT22;32867;51.556;6.832;2023-05-02T07:07:01;11.10;99.90
47114;DHT22;32867;51.556;6.832;2023-05-02T07:12:02;11.20;99.90
47114;DHT22;32867;51.556;6.832;2023-05-02T07:17:03;11.50;99.90
47114;DHT22;32867;51.556;6.832;2023-05-02T07:22:04;11.10;99.90
47114;DHT22;32867;51.556;6.832;2023-05-02T07:27:09;11.40;99.90
47114;DHT22;32867;51.556;6.832;2023-05-02T07:32:10;11.00;99.90
47114;DHT22;32867;51.556;6.832;2023-05-02T07:37:11;11.50;99.90
47114;DHT22;32867;51.556;6.832;2023-05-02T07:42:11;11.80;99.90
47114;DHT22;32867;51.556;6.832;2023-05-02T07:47:12;11.80;99.90
47114;DHT22;32867;51.556;6.832;2023-05-02T07:52:13;11.90;99.90
47114;DHT22;32867;51.556;6.832;2023-05-02T07:57:14;11.70;99.90
47114;DHT22;32867;51.556;6.832;2023-05-02T08:02:14;11.60;99.90
47114;DHT22;32867;51.556;6.832;2023-05-02T08:07:19;11.50;99.90
47114;DHT22;32867;51.556;6.832;2023-05-02T08:12:20;11.40;99.90
47114;DHT22;32867;51.556;6.832;2023-05-02T08:17:22;11.10;99.90
47114;DHT22;32867;51.556;6.832;2023-05-02T08:22:22;11.20;99.90
47114;DHT22;32867;51.556;6.832;2023-05-02T08:27:23;11.40;99.90
47114;DHT22;32867;51.556;6.832;2023-05-02T08:32:24;11.30;99.90
47114;DHT22;32867;51.556;6.832;2023-05-02T08:37:25;11.60;99.90
47114;DHT22;32867;51.556;6.832;2023-05-02T08:42:26;11.90;99.90
47114;DHT22;32867;51.556;6.832;2023-05-02T08:47:29;11.50;99.90
47114;DHT22;32867;51.556;6.832;2023-05-02T08:52:32;12.00;99.90
47114;DHT22;32867;51.556;6.832;2023-05-02T08:57:33;12.10;99.90
47114;DHT22;32867;51.556;6.832;2023-05-02T09:02:38;12.20;99.90
47114;DHT22;32867;51.556;6.832;2023-05-02T09:07:50;12.60;99.90
47114;DHT22;32867;51.556;6.832;2023-05-02T09:12:51;12.40;99.90
47114;DHT22;32867;51.556;6.832;2023-05-02T09:17:52;13.10;99.90
47114;DHT22;32867;51.556;6.832;2023-05-02T09:22:53;13.70;99.90
47114;DHT22;32867;51.556;6.832;2023-05-02T09:27:55;14.10;99.90
47114;DHT22;32867;51.556;6.832;2023-05-02T09:32:56;13.20;99.40
47114;DHT22;32867;51.556;6.832;2023-05-02T09:37:57;12.50;99.90
47114;DHT22;32867;51.556;6.832;2023-05-02T09:42:58;13.00;99.90
47114;DHT22;32867;51.556;6.832;2023-05-02T09:48:01;13.90;99.90
47114;DHT22;32867;51.556;6.832;2023-05-02T09:53:03;14.30;98.30
47114;DHT22;32867;51.556;6.832;2023-05-02T09:58:04;12.70;98.30
47114;DHT22;32867;51.556;6.832;2023-05-02T10:03:06;13.10;98.90
47114;DHT22;32867;51.556;6.832;2023-05-02T10:08:08;12.40;98.60
47114;DHT22;32867;51.556;6.832;2023-05-02T10:13:12;12.90;98.30
47114;DHT22;32867;51.556;6.832;2023-05-02T10:18:16;13.50;98.00
47114;DHT22;32867;51.556;6.832;2023-05-02T10:23:21;13.50;96.30
47114;DHT22;32867;51.556;6.832;2023-05-02T10:28:28;13.50;94.80
47114;DHT22;32867;51.556;6.832;2023-05-02T10:33:30;12.80;94.20
47114;DHT22;32867;51.556;6.832;2023-05-02T10:38:35;13.30;92.20
47114;DHT22;32867;51.556;6.832;2023-05-02T10:43:37;13.20;94.30
47114;DHT22;32867;51.556;6.832;2023-05-02T10:48:38;13.80;92.40
47114;DHT22;32867;51.556;6.832;2023-05-02T10:53:39;14.10;83.70
47114;DHT22;32867;51.556;6.832;2023-05-02T10:58:44;14.20;79.40
47114;DHT22;32867;51.556;6.832;2023-05-02T11:04:06;14.60;80.60
47114;DHT22;32867;51.556;6.832;2023-05-02T11:24:41;13.10;84.80
47114;DHT22;32867;51.556;6.832;2023-05-02T11:29:57;12.50;84.60
47114;DHT22;32867;51.556;6.832;2023-05-02T11:34:58;11.60;86.60
47114;DHT22;32867;51.556;6.832;2023-05-02T11:40:10;12.10;84.40
47114;DHT22;32867;51.556;6.832;2023-05-02T11:45:11;12.60;81.10
47114;DHT22;32867;51.556;6.832;2023-05-02T11:50:13;13.20;81.50
47114;DHT22;32867;51.556;6.832;2023-05-02T11:55:14;13.30;84.60
47114;DHT22;32867;51.556;6.832;2023-05-02T12:00:15;14.50;81.40
47114;DHT22;32867;51.556;6.832;2023-05-02T12:05:26;15.00;75.90
47114;DHT22;32867;51.556;6.832;2023-05-02T12:10:35;15.60;73.80
47114;DHT22;32867;51.556;6.832;2023-05-02T12:15:37;15.50;70.60
47114;DHT22;32867;51.556;6.832;2023-05-02T12:20:38;15.00;69.80
47114;DHT22;32867;51.556;6.832;2023-05-02T12:25:40;13.80;73.50
47114;DHT22;32867;51.556;6.832;2023-05-02T12:30:40;16.80;68.60
47114;DHT22;32867;51.556;6.832;2023-05-02T12:35:42;16.10;67.50
47114;DHT22;32867;51.556;6.832;2023-05-02T12:40:52;15.40;64.50
47114;DHT22;32867;51.556;6.832;2023-05-02T12:46:08;16.60;64.20
47114;DHT22;32867;51.556;6.832;2023-05-02T12:51:23;18.70;61.70
47114;DHT22;32867;51.556;6.832;2023-05-02T12:56:24;18.00;60.50
47114;DHT22;32867;51.556;6.832;2023-05-02T13:01:27;16.30;62.50
47114;DHT22;32867;51.556;6.832;2023-05-02T13:06:28;16.30;59.50
47114;DHT22;32867;51.556;6.832;2023-05-02T13:11:28;15.50;64.70
47114;DHT22;32867;51.556;6.832;2023-05-02T13:16:29;15.00;63.00
47114;DHT22;32867;51.556;6.832;2023-05-02T13:21:30;14.70;63.00
47114;DHT22;32867;51.556;6.832;2023-05-02T13:26:31;15.40;65.70
47114;DHT22;32867;51.556;6.832;2023-05-02T13:31:32;18.10;62.60
47114;DHT22;32867;51.556;6.832;2023-05-02T13:36:33;19.10;59.50
47114;DHT22;32867;51.556;6.832;2023-05-02T13:41:34;19.50;57.40
47114;DHT22;32867;51.556;6.832;2023-05-02T13:46:35;20.20;58.50
47114;DHT22;32867;51.556;6.832;2023-05-02T13:51:36;17.20;56.40
47114;DHT22;32867;51.556;6.832;2023-05-02T13:56:37;16.90;58.20
47114;DHT22;32867;51.556;6.832;2023-05-02T14:01:39;19.00;60.60
47114;DHT22;32867;51.556;6.832;2023-05-02T14:06:39;21.40;56.30
47114;DHT22;32867;51.556;6.832;2023-05-02T14:11:40;22.10;50.40
47114;DHT22;32867;51.556;6.832;2023-05-02T14:16:41;19.90;52.80
47114;DHT22;32867;51.556;6.832;2023-05-02T14:21:41;18.30;51.70
47114;DHT22;32867;51.556;6.832;2023-05-02T14:26:42;17.60;57.30
47114;DHT22;32867;51.556;6.832;2023-05-02T14:31:43;17.50;58.90
47114;DHT22;32867;51.556;6.832;2023-05-02T14:36:45;18.00;57.50
47114;DHT22;32867;51.556;6.832;2023-05-02T14:41:45;19.10;57.20
47114;DHT22;32867;51.556;6.832;2023-05-02T14:46:46;20.50;53.60
47114;DHT22;32867;51.556;6.832;2023-05-02T14:51:47;18.60;55.80
47114;DHT22;32867;51.556;6.832;2023-05-02T14:56:48;18.30;57.10
47114;DHT22;32867;51.556;6.832;2023-05-02T15:01:51;20.30;56.40
47114;DHT22;32867;51.556;6.832;2023-05-02T15:06:52;20.80;51.60
47114;DHT22;32867;51.556;6.832;2023-05-02T15:11:54;19.80;52.50
47114;DHT22;32867;51.556;6.832;2023-05-02T15:16:54;19.80;54.00
47114;DHT22;32867;51.556;6.832;2023-05-02T15:21:55;21.30;53.80
47114;DHT22;32867;51.556;6.832;2023-05-02T15:26:59;22.00;51.50
47114;DHT22;32867;51.556;6.832;2023-05-02T15:32:00;22.20;50.90
47114;DHT22;32867;51.556;6.832;2023-05-02T15:37:01;20.80;47.40
47114;DHT22;32867;51.556;6.832;2023-05-02T15:42:02;22.10;50.00
47114;DHT22;32867;51.556;6.832;2023-05-02T15:47:04;22.80;48.30
47114;DHT22;32867;51.556;6.832;2023-05-02T15:52:05;23.40;47.50
47114;DHT22;32867;51.556;6.832;2023-05-02T15:57:05;22.50;47.30
47114;DHT22;32867;51.556;6.832;2023-05-02T16:02:06;20.30;46.90
47114;DHT22;32867;51.556;6.832;2023-05-02T16:07:08;21.80;49.10
47114;DHT22;32867;51.556;6.832;2023-05-02T16:12:09;23.40;47.40
47114;DHT22;32867;51.556;6.832;2023-05-02T16:17:10;23.10;44.90
47114;DHT22;32867;51.556;6.832;2023-05-02T16:22:10;20.70;49.80
47114;DHT22;32867;51.556;6.832;2023-05-02T16:27:11;22.20;47.40
47114;DHT22;32867;51.556;6.832;2023-05-02T16:32:12;22.80;48.30
47114;DHT22;32867;51.556;6.832;2023-05-02T16:37:12;24.30;48.10
47114;DHT22;32867;51.556;6.832;2023-05-02T16:42:13;21.20;49.40
47114;DHT22;32867;51.556;6.832;2023-05-02T16:47:14;24.80;46.70
47114;DHT22;32867;51.556;6.832;2023-05-02T16:52:15;26.20;45.70
47114;DHT22;32867;51.556;6.832;2023-05-02T16:57:16;31.00;42.30
47114;DHT22;32867;51.556;6.832;2023-05-02T17:02:19;35.30;39.10
47114;DHT22;32867;51.556;6.832;2023-05-02T17:07:21;37.40;37.10
47114;DHT22;32867;51.556;6.832;2023-05-02T17:12:22;36.70;36.10
47114;DHT22;32867;51.556;6.832;2023-05-02T17:17:22;37.60;34.90
47114;DHT22;32867;51.556;6.832;2023-05-02T17:22:23;37.30;34.70
47114;DHT22;32867;51.556;6.832;2023-05-02T17:27:24;36.40;34.70
47114;DHT22;32867;51.556;6.832;2023-05-02T17:32:25;35.20;33.90
47114;DHT22;32867;51.556;6.832;2023-05-02T17:37:25;34.60;34.60
47114;DHT22;32867;51.556;6.832;2023-05-02T17:42:26;31.20;36.60
47114;DHT22;32867;51.556;6.832;2023-05-02T17:47:27;33.40;36.00
47114;DHT22;32867;51.556;6.832;2023-05-02T17:52:28;33.70;35.40
47114;DHT22;32867;51.556;6.832;2023-05-02T17:57:28;32.70;35.40
47114;DHT22;32867;51.556;6.832;2023-05-02T18:02:29;31.00;35.60
47114;DHT22;32867;51.556;6.832;2023-05-02T18:07:30;30.90;36.50
47114;DHT22;32867;51.556;6.832;2023-05-02T18:12:31;29.40;37.40
47114;DHT22;32867;51.556;6.832;2023-05-02T18:17:33;28.90;37.20
47114;DHT22;32867;51.556;6.832;2023-05-02T18:22:33;28.20;37.90
47114;DHT22;32867;51.556;6.832;2023-05-02T18:27:34;26.00;39.00
47114;DHT22;32867;51.556;6.832;2023-05-02T18:32:35;25.10;40.30
47114;DHT22;32867;51.556;6.832;2023-05-02T18:37:35;24.20;41.20
47114;DHT22;32867;51.556;6.832;2023-05-02T18:42:36;22.80;43.00
47114;DHT22;32867;51.556;6.832;2023-05-02T18:47:37;21.20;44.50
47114;DHT22;32867;51.556;6.832;2023-05-02T18:52:37;19.40;46.10
47114;DHT22;32867;51.556;6.832;2023-05-02T18:57:38;17.70;48.30
47114;DHT22;32867;51.556;6.832;2023-05-02T19:02:42;16.70;50.00
47114;DHT22;32867;51.556;6.832;2023-05-02T19:07:45;16.00;51.20
47114;DHT22;32867;51.556;6.832;2023-05-02T19:12:46;15.50;52.40
47114;DHT22;32867;51.556;6.832;2023-05-02T19:17:48;15.10;53.10
47114;DHT22;32867;51.556;6.832;2023-05-02T19:22:49;14.70;53.90
47114;DHT22;32867;51.556;6.832;2023-05-02T19:27:51;14.40;54.70
47114;DHT22;32867;51.556;6.832;2023-05-02T19:32:58;14.20;55.40
47114;DHT22;32867;51.556;6.832;2023-05-02T19:38:02;13.80;56.10
47114;DHT22;32867;51.556;6.832;2023-05-02T19:43:03;13.70;56.60
47114;DHT22;32867;51.556;6.832;2023-05-02T19:48:04;13.50;57.20
47114;DHT22;32867;51.556;6.832;2023-05-02T19:53:05;13.30;57.90
47114;DHT22;32867;51.556;6.832;2023-05-02T19:58:06;13.10;59.00
47114;DHT22;32867;51.556;6.832;2023-05-02T20:03:07;12.90;58.90
47114;DHT22;32867;51.556;6.832;2023-05-02T20:08:15;12.80;59.70
47114;DHT22;32867;51.556;6.832;2023-05-02T20:13:16;12.70;60.00
47114;DHT22;32867;51.556;6.832;2023-05-02T20:18:17;12.50;60.70
47114;DHT22;32867;51.556;6.832;2023-05-02T20:23:20;12.40;61.40
47114;DHT22;32867;51.556;6.832;2023-05-02T20:28:21;12.20;62.00
47114;DHT22;32867;51.556;6.832;2023-05-02T20:33:22;12.10;62.60
47114;DHT22;32867;51.556;6.832;2023-05-02T20:38:23;12.00;63.20
47114;DHT22;32867;51.556;6.832;2023-05-02T20:43:24;11.90;63.90
47114;DHT22;32867;51.556;6.832;2023-05-02T20:48:28;11.80;64.40
47114;DHT22;32867;51.556;6.832;2023-05-02T20:53:29;11.70;65.20
47114;DHT22;32867;51.556;6.832;2023-05-02T20:58:29;11.60;65.50
47114;DHT22;32867;51.556;6.832;2023-05-02T21:03:31;11.40;66.00
47114;DHT22;32867;51.556;6.832;2023-05-02T21:08:35;11.40;66.50
47114;DHT22;32867;51.556;6.832;2023-05-02T21:13:36;11.30;66.80
47114;DHT22;32867;51.556;6.832;2023-05-02T21:18:37;11.20;67.40
47114;DHT22;32867;51.556;6.832;2023-05-02T21:23:37;11.20;67.80
47114;DHT22;32867;51.556;6.832;2023-05-02T21:28:38;11.00;68.20
47114;DHT22;32867;51.556;6.832;2023-05-02T21:33:39;10.90;69.10
47114;DHT22;32867;51.556;6.832;2023-05-02T21:38:40;10.80;69.60
47114;DHT22;32867;51.556;6.832;2023-05-02T21:43:41;10.70;70.40
47114;DHT22;32867;51.556;6.832;2023-05-02T21:48:42;10.60;70.80
47114;DHT22;32867;51.556;6.832;2023-05-02T21:53:46;10.50;71.70
47114;DHT22;32867;51.556;6.832;2023-05-02T21:58:46;10.40;72.50
47114;DHT22;32867;51.556;6.832;2023-05-02T22:03:49;10.30;73.10
47114;DHT22;32867;51.556;6.832;2023-05-02T22:08:49;10.30;74.10
47114;DHT22;32867;51.556;6.832;2023-05-02T22:13:50;10.20;74.40
47114;DHT22;32867;51.556;6.832;2023-05-02T22:18:51;10.10;74.80
47114;DHT22;32867;51.556;6.832;2023-05-02T22:23:52;10.10;75.70
47114;DHT22;32867;51.556;6.832;2023-05-02T22:28:53;10.00;76.20
47114;DHT22;32867;51.556;6.832;2023-05-02T22:33:53;9.90;77.20
47114;DHT22;32867;51.556;6.832;2023-05-02T22:38:54;9.80;78.00
47114;DHT22;32867;51.556;6.832;2023-05-02T22:43:56;9.70;79.00
47114;DHT22;32867;51.556;6.832;2023-05-02T22:48:56;9.40;80.50
47114;DHT22;32867;51.556;6.832;2023-05-02T22:53:57;9.30;81.60
47114;DHT22;32867;51.556;6.832;2023-05-02T22:58:58;9.10;83.20
47114;DHT22;32867;51.556;6.832;2023-05-02T23:03:58;9.00;85.30
47114;DHT22;32867;51.556;6.832;2023-05-02T23:08:59;8.90;86.20
47114;DHT22;32867;51.556;6.832;2023-05-02T23:14:00;8.90;86.80
47114;DHT22;32867;51.556;6.832;2023-05-02T23:19:00;8.90;87.00
47114;DHT22;32867;51.556;6.832;2023-05-02T23:24:01;8.70;88.30
47114;DHT22;32867;51.556;6.832;2023-05-02T23:29:02;8.70;89.20
47114;DHT22;32867;51.556;6.832;2023-05-02T23:34:03;8.50;90.20
47114;DHT22;32867;51.556;6.832;2023-05-02T23:39:04;8.50;90.30
47114;DHT22;32867;51.556;6.832;2023-05-02T23:44:05;8.50;90.60
47114;DHT22;32867;51.556;6.832;2023-05-02T23:49:06;8.30;91.80
47114;DHT22;32867;51.556;6.832;2023-05-02T23:54:07;8.30;91.90
47114;DHT22;32867;51.556;6.832;2023-05-02T23:59:07;8.30;92.20
